createdAt,value
2023-01-04T00:01:50.584Z,1018.37
2023-01-04T00:04:23.495Z,1018.39
2023-01-04T00:06:56.518Z,1018.40
2023-01-04T00:09:29.490Z,1018.43
2023-01-04T00:12:05.417Z,1018.44
2023-01-04T00:14:38.577Z,1018.44
2023-01-04T00:17:11.511Z,1018.43
2023-01-04T00:19:44.618Z,1018.42
2023-01-04T00:22:17.486Z,1018.41
2023-01-04T00:24:50.630Z,1018.40
2023-01-04T00:27:23.611Z,1018.41
2023-01-04T00:29:56.625Z,1018.41
2023-01-04T00:32:29.472Z,1018.39
2023-01-04T00:35:02.475Z,1018.37
2023-01-04T00:37:35.636Z,1018.33
2023-01-04T00:40:08.621Z,1018.28
2023-01-04T00:42:41.621Z,1018.23
2023-01-04T00:45:14.619Z,1018.19
2023-01-04T00:47:47.619Z,1018.14
2023-01-04T00:50:20.619Z,1018.10
2023-01-04T00:52:53.649Z,1018.06
2023-01-04T00:55:26.551Z,1018.04
2023-01-04T00:57:59.676Z,1018.03
2023-01-04T01:00:32.534Z,1018.01
2023-01-04T01:03:06.060Z,1017.97
2023-01-04T01:05:38.573Z,1017.95
2023-01-04T01:08:11.547Z,1017.91
2023-01-04T01:10:44.538Z,1017.88
2023-01-04T01:13:17.713Z,1017.84
2023-01-04T01:15:50.675Z,1017.83
2023-01-04T01:18:23.677Z,1017.81
2023-01-04T01:20:56.590Z,1017.80
2023-01-04T01:23:29.670Z,1017.78
2023-01-04T01:26:02.579Z,1017.77
2023-01-04T01:28:35.833Z,1017.74
2023-01-04T01:31:09.677Z,1017.71
2023-01-04T01:33:43.727Z,1017.69
2023-01-04T01:36:16.601Z,1017.65
2023-01-04T01:38:49.716Z,1017.64
2023-01-04T01:41:22.684Z,1017.63
2023-01-04T01:43:55.656Z,1017.63
2023-01-04T01:46:28.814Z,1017.63
2023-01-04T01:49:01.664Z,1017.60
2023-01-04T01:51:34.607Z,1017.58
2023-01-04T01:54:07.718Z,1017.56
2023-01-04T01:56:40.725Z,1017.53
2023-01-04T01:59:13.744Z,1017.50
2023-01-04T02:01:46.890Z,1017.46
2023-01-04T02:04:19.769Z,1017.43
2023-01-04T02:06:52.637Z,1017.38
2023-01-04T02:09:25.859Z,1017.34
2023-01-04T02:11:59.687Z,1017.32
2023-01-04T02:14:32.776Z,1017.29
2023-01-04T02:17:05.699Z,1017.27
2023-01-04T02:19:38.605Z,1017.25
2023-01-04T02:22:11.660Z,1017.23
2023-01-04T02:24:44.773Z,1017.21
2023-01-04T02:27:17.787Z,1017.18
2023-01-04T02:29:50.850Z,1017.15
2023-01-04T02:32:23.759Z,1017.12
2023-01-04T02:34:59.004Z,1017.09
2023-01-04T02:37:29.768Z,1017.10
2023-01-04T02:40:02.795Z,1017.10
2023-01-04T02:42:35.775Z,1017.09
2023-01-04T02:45:08.752Z,1017.09
2023-01-04T02:47:41.805Z,1017.11
2023-01-04T02:50:14.727Z,1017.11
2023-01-04T02:52:47.789Z,1017.08
2023-01-04T02:55:20.715Z,1017.05
2023-01-04T02:57:53.830Z,1017.03
2023-01-04T03:00:26.762Z,1017.00
2023-01-04T03:03:02.873Z,1016.97
2023-01-04T03:05:35.800Z,1016.94
2023-01-04T03:08:08.829Z,1016.90
2023-01-04T03:10:41.488Z,1016.86
2023-01-04T03:13:14.700Z,1016.81
2023-01-04T03:15:47.906Z,1016.77
2023-01-04T03:18:20.828Z,1016.72
2023-01-04T03:20:53.887Z,1016.69
2023-01-04T03:23:26.798Z,1016.65
2023-01-04T03:25:59.789Z,1016.64
2023-01-04T03:28:32.837Z,1016.61
2023-01-04T03:31:05.994Z,1016.58
2023-01-04T03:33:38.855Z,1016.57
2023-01-04T03:36:11.819Z,1016.54
2023-01-04T03:38:44.840Z,1016.53
2023-01-04T03:41:17.855Z,1016.51
2023-01-04T03:43:50.770Z,1016.47
2023-01-04T03:46:23.889Z,1016.45
2023-01-04T03:48:56.940Z,1016.41
2023-01-04T03:51:29.838Z,1016.38
2023-01-04T03:54:02.850Z,1016.34
2023-01-04T03:56:35.844Z,1016.30
2023-01-04T03:59:11.756Z,1016.28
2023-01-04T04:01:45.233Z,1016.26
2023-01-04T04:04:17.995Z,1016.23
2023-01-04T04:06:50.926Z,1016.21
2023-01-04T04:09:23.833Z,1016.18
2023-01-04T04:11:56.953Z,1016.17
2023-01-04T04:14:29.885Z,1016.15
2023-01-04T04:17:02.995Z,1016.14
2023-01-04T04:19:35.937Z,1016.10
2023-01-04T04:22:09.045Z,1016.09
2023-01-04T04:24:45.856Z,1016.08
2023-01-04T04:27:18.899Z,1016.08
2023-01-04T04:29:51.877Z,1016.05
2023-01-04T04:32:24.911Z,1016.00
2023-01-04T04:34:57.900Z,1015.96
2023-01-04T04:37:30.914Z,1015.92
2023-01-04T04:40:03.985Z,1015.91
2023-01-04T04:42:36.925Z,1015.90
2023-01-04T04:45:09.928Z,1015.88
2023-01-04T04:47:42.936Z,1015.87
2023-01-04T04:50:15.993Z,1015.86
2023-01-04T04:52:55.633Z,1015.84
2023-01-04T04:55:21.976Z,1015.83
2023-01-04T04:57:54.962Z,1015.80
2023-01-04T05:00:27.939Z,1015.77
2023-01-04T05:03:01.214Z,1015.74
2023-01-04T05:05:33.925Z,1015.73
2023-01-04T05:08:07.023Z,1015.74
2023-01-04T05:10:39.771Z,1015.74
2023-01-04T05:13:12.947Z,1015.74
2023-01-04T05:15:45.951Z,1015.72
2023-01-04T05:18:19.073Z,1015.70
2023-01-04T05:20:54.967Z,1015.65
2023-01-04T05:23:28.002Z,1015.64
2023-01-04T05:26:01.036Z,1015.63
2023-01-04T05:28:33.941Z,1015.61
2023-01-04T05:31:06.968Z,1015.59
2023-01-04T05:33:40.113Z,1015.57
2023-01-04T05:36:12.998Z,1015.55
2023-01-04T05:38:46.131Z,1015.52
2023-01-04T05:41:20.030Z,1015.51
2023-01-04T05:43:52.944Z,1015.47
2023-01-04T05:46:29.083Z,1015.44
2023-01-04T05:49:02.067Z,1015.40
2023-01-04T05:51:35.009Z,1015.35
2023-01-04T05:54:07.996Z,1015.29
2023-01-04T05:56:41.036Z,1015.24
2023-01-04T05:59:14.040Z,1015.21
2023-01-04T06:01:46.940Z,1015.17
2023-01-04T06:04:20.121Z,1015.13
2023-01-04T06:06:53.022Z,1015.13
2023-01-04T06:09:26.103Z,1015.11
2023-01-04T06:11:59.135Z,1015.09
2023-01-04T06:14:32.136Z,1015.09
2023-01-04T06:17:05.106Z,1015.06
2023-01-04T06:19:38.163Z,1015.02
2023-01-04T06:22:11.055Z,1014.99
2023-01-04T06:24:44.183Z,1014.96
2023-01-04T06:27:17.100Z,1014.95
2023-01-04T06:29:50.157Z,1014.96
2023-01-04T06:32:23.052Z,1014.95
2023-01-04T06:34:56.114Z,1014.96
2023-01-04T06:37:29.080Z,1014.98
2023-01-04T06:40:02.166Z,1014.99
2023-01-04T06:42:35.187Z,1014.99
2023-01-04T06:45:08.073Z,1014.98
2023-01-04T06:47:41.194Z,1014.98
2023-01-04T06:50:14.114Z,1014.96
2023-01-04T06:52:47.169Z,1014.95
2023-01-04T06:55:20.157Z,1014.92
2023-01-04T06:57:59.200Z,1014.89
2023-01-04T07:00:26.102Z,1014.84
2023-01-04T07:03:14.409Z,1014.84
2023-01-04T07:05:32.155Z,1014.81
2023-01-04T07:08:08.169Z,1014.77
2023-01-04T07:10:37.952Z,1014.76
2023-01-04T07:13:11.142Z,1014.80
2023-01-04T07:15:44.271Z,1014.84
2023-01-04T07:18:17.235Z,1014.86
2023-01-04T07:20:50.165Z,1014.88
2023-01-04T07:23:23.235Z,1014.87
2023-01-04T07:25:56.163Z,1014.86
2023-01-04T07:28:29.244Z,1014.81
2023-01-04T07:31:02.270Z,1014.77
2023-01-04T07:33:35.148Z,1014.72
2023-01-04T07:36:08.261Z,1014.65
2023-01-04T07:38:41.143Z,1014.58
2023-01-04T07:41:14.164Z,1014.49
2023-01-04T07:43:47.259Z,1014.42
2023-01-04T07:46:20.249Z,1014.37
2023-01-04T07:48:53.263Z,1014.30
2023-01-04T07:51:26.209Z,1014.23
2023-01-04T07:53:59.301Z,1014.17
2023-01-04T07:56:32.054Z,1014.13
2023-01-04T07:59:05.103Z,1014.08
2023-01-04T08:01:38.311Z,1014.06
2023-01-04T08:04:11.194Z,1014.03
2023-01-04T08:06:44.325Z,1014.01
2023-01-04T08:09:17.237Z,1014.04
2023-01-04T08:11:50.019Z,1014.09
2023-01-04T08:14:23.117Z,1014.10
2023-01-04T08:16:56.165Z,1014.11
2023-01-04T08:19:29.113Z,1014.14
2023-01-04T08:22:02.134Z,1014.17
2023-01-04T08:24:35.121Z,1014.20
2023-01-04T08:27:07.995Z,1014.26
2023-01-04T08:29:41.196Z,1014.27
2023-01-04T08:32:14.019Z,1014.27
2023-01-04T08:34:46.963Z,1014.29
2023-01-04T08:37:20.268Z,1014.28
2023-01-04T08:39:52.990Z,1014.26
2023-01-04T08:42:31.225Z,1014.23
2023-01-04T08:44:59.827Z,1014.22
2023-01-04T08:47:31.962Z,1014.21
2023-01-04T08:50:10.314Z,1014.20
2023-01-04T08:52:38.170Z,1014.18
2023-01-04T08:55:13.517Z,1014.17
2023-01-04T08:57:44.138Z,1014.13
2023-01-04T09:00:17.186Z,1014.13
2023-01-04T09:02:50.453Z,1014.10
2023-01-04T09:05:23.468Z,1014.09
2023-01-04T09:07:56.332Z,1014.10
2023-01-04T09:10:29.373Z,1014.09
2023-01-04T09:13:02.534Z,1014.07
2023-01-04T09:15:36.399Z,1014.04
2023-01-04T09:18:30.876Z,1014.02
2023-01-04T09:20:42.170Z,1014.00
2023-01-04T09:23:15.334Z,1013.99
2023-01-04T09:25:48.177Z,1014.00
2023-01-04T09:28:21.472Z,1014.03
2023-01-04T09:34:12.915Z,1014.06
2023-01-04T09:36:17.309Z,1014.07
2023-01-04T09:38:50.113Z,1014.07
2023-01-04T09:41:23.468Z,1014.06
2023-01-04T09:43:56.410Z,1014.05
2023-01-04T09:46:29.372Z,1014.01
2023-01-04T09:49:02.386Z,1013.99
2023-01-04T09:51:35.104Z,1013.96
2023-01-04T09:54:08.232Z,1013.94
2023-01-04T09:56:41.291Z,1013.92
2023-01-04T09:59:14.403Z,1013.92
2023-01-04T10:01:47.684Z,1013.93
2023-01-04T10:04:20.349Z,1013.90
2023-01-04T10:06:53.469Z,1013.87
2023-01-04T10:09:26.472Z,1013.87
2023-01-04T10:11:59.102Z,1013.86
2023-01-04T10:14:32.494Z,1013.84
2023-01-04T10:17:15.112Z,1013.83
2023-01-04T10:22:11.528Z,1013.78
2023-01-04T10:24:44.302Z,1013.75
2023-01-04T10:27:17.136Z,1013.72
2023-01-04T10:29:50.416Z,1013.69
2023-01-04T10:32:23.616Z,1013.68
2023-01-04T10:34:56.501Z,1013.68
2023-01-04T10:37:29.407Z,1013.67
2023-01-04T10:40:02.499Z,1013.68
2023-01-04T10:42:35.372Z,1013.68
2023-01-04T10:45:09.596Z,1013.66
2023-01-04T10:47:43.555Z,1013.63
2023-01-04T10:50:16.515Z,1013.59
2023-01-04T10:52:49.488Z,1013.56
2023-01-04T10:55:22.483Z,1013.54
2023-01-04T10:57:55.541Z,1013.54
2023-01-04T11:00:28.552Z,1013.51
2023-01-04T11:03:08.207Z,1013.50
2023-01-04T11:05:40.439Z,1013.47
2023-01-04T11:08:13.468Z,1013.43
2023-01-04T11:10:46.269Z,1013.41
2023-01-04T11:13:19.261Z,1013.39
2023-01-04T11:15:52.243Z,1013.35
2023-01-04T11:18:25.601Z,1013.33
2023-01-04T11:20:58.551Z,1013.28
2023-01-04T11:23:31.337Z,1013.24
2023-01-04T11:26:04.663Z,1013.21
2023-01-04T11:28:37.393Z,1013.21
2023-01-04T11:31:10.527Z,1013.21
2023-01-04T11:33:43.477Z,1013.17
2023-01-04T11:36:16.492Z,1013.13
2023-01-04T11:38:49.380Z,1013.11
2023-01-04T11:41:22.586Z,1013.09
2023-01-04T11:43:55.524Z,1013.06
2023-01-04T11:46:28.322Z,1013.03
2023-01-04T11:49:01.403Z,1013.00
2023-01-04T11:51:34.636Z,1012.96
2023-01-04T11:54:07.646Z,1012.95
2023-01-04T11:56:40.612Z,1012.93
2023-01-04T11:59:17.768Z,1012.90
2023-01-04T12:01:47.014Z,1012.87
2023-01-04T12:04:20.463Z,1012.83
2023-01-04T12:06:53.299Z,1012.80
2023-01-04T12:09:26.428Z,1012.76
2023-01-04T12:11:59.529Z,1012.69
2023-01-04T12:14:32.443Z,1012.66
2023-01-04T12:17:05.532Z,1012.63
2023-01-04T12:19:38.469Z,1012.59
2023-01-04T12:22:11.316Z,1012.56
2023-01-04T12:24:44.286Z,1012.50
2023-01-04T12:27:17.347Z,1012.44
2023-01-04T12:29:50.464Z,1012.40
2023-01-04T12:32:23.459Z,1012.36
2023-01-04T12:34:56.680Z,1012.35
2023-01-04T12:37:29.676Z,1012.35
2023-01-04T12:40:02.597Z,1012.35
2023-01-04T12:42:35.642Z,1012.34
2023-01-04T12:45:08.581Z,1012.32
2023-01-04T12:47:41.743Z,1012.27
2023-01-04T12:50:14.743Z,1012.24
2023-01-04T12:53:19.541Z,1012.21
2023-01-04T12:55:20.772Z,1012.19
2023-01-04T12:57:53.758Z,1012.19
2023-01-04T13:00:26.700Z,1012.16
2023-01-04T13:02:59.995Z,1012.13
2023-01-04T13:05:55.617Z,1012.11
2023-01-04T13:08:05.642Z,1012.11
2023-01-04T13:10:38.397Z,1012.09
2023-01-04T13:13:11.769Z,1012.06
2023-01-04T13:15:44.655Z,1012.03
2023-01-04T13:18:17.364Z,1012.00
2023-01-04T13:20:50.635Z,1011.95
2023-01-04T13:23:37.672Z,1011.90
2023-01-04T13:26:10.379Z,1011.87
2023-01-04T13:28:43.554Z,1011.81
2023-01-04T13:31:16.518Z,1011.76
2023-01-04T13:33:49.669Z,1011.70
2023-01-04T13:36:22.686Z,1011.67
2023-01-04T13:38:55.790Z,1011.63
2023-01-04T13:41:28.709Z,1011.60
2023-01-04T13:44:01.637Z,1011.57
2023-01-04T13:46:34.862Z,1011.55
2023-01-04T13:49:07.531Z,1011.53
2023-01-04T13:51:40.861Z,1011.51
2023-01-04T13:54:13.723Z,1011.51
2023-01-04T13:56:51.634Z,1011.51
2023-01-04T13:59:19.675Z,1011.48
2023-01-04T14:01:52.827Z,1011.43
2023-01-04T14:04:25.663Z,1011.39
2023-01-04T14:06:58.864Z,1011.35
2023-01-04T14:09:31.820Z,1011.31
2023-01-04T14:12:08.694Z,1011.26
2023-01-04T14:14:37.841Z,1011.22
2023-01-04T14:17:10.725Z,1011.18
2023-01-04T14:19:43.900Z,1011.13
2023-01-04T14:22:16.640Z,1011.12
2023-01-04T14:27:22.867Z,1011.10
2023-01-04T14:29:55.683Z,1011.10
2023-01-04T14:32:28.867Z,1011.12
2023-01-04T14:35:01.674Z,1011.12
2023-01-04T14:37:34.835Z,1011.13
2023-01-04T14:40:07.947Z,1011.14
2023-01-04T14:42:40.512Z,1011.13
2023-01-04T14:45:13.691Z,1011.13
2023-01-04T14:47:46.786Z,1011.13
2023-01-04T14:50:19.818Z,1011.11
2023-01-04T14:52:52.907Z,1011.11
2023-01-04T14:55:25.836Z,1011.07
2023-01-04T14:57:58.904Z,1011.01
2023-01-04T15:00:31.874Z,1010.96
2023-01-04T15:03:05.243Z,1010.91
2023-01-04T15:05:38.180Z,1010.89
2023-01-04T15:08:10.831Z,1010.86
2023-01-04T15:10:43.539Z,1010.83
2023-01-04T15:13:16.816Z,1010.81
2023-01-04T15:15:49.870Z,1010.80
2023-01-04T15:18:22.807Z,1010.78
2023-01-04T15:20:55.850Z,1010.78
2023-01-04T15:23:28.880Z,1010.80
2023-01-04T15:26:02.027Z,1010.81
2023-01-04T15:28:34.757Z,1010.81
2023-01-04T15:31:08.040Z,1010.80
2023-01-04T15:33:40.839Z,1010.80
2023-01-04T15:36:17.362Z,1010.80
2023-01-04T15:38:47.019Z,1010.79
2023-01-04T15:41:19.864Z,1010.78
2023-01-04T15:43:52.995Z,1010.77
2023-01-04T15:46:26.029Z,1010.74
2023-01-04T15:48:58.627Z,1010.73
2023-01-04T15:51:31.769Z,1010.72
2023-01-04T15:54:04.999Z,1010.70
2023-01-04T15:56:37.946Z,1010.67
2023-01-04T15:59:12.881Z,1010.64
2023-01-04T16:01:46.171Z,1010.63
2023-01-04T16:04:18.974Z,1010.61
2023-01-04T16:06:52.017Z,1010.62
2023-01-04T16:09:25.021Z,1010.64
2023-01-04T16:11:58.033Z,1010.65
2023-01-04T16:14:31.052Z,1010.65
2023-01-04T16:17:04.106Z,1010.64
2023-01-04T16:19:36.861Z,1010.61
2023-01-04T16:22:09.957Z,1010.59
2023-01-04T16:25:09.917Z,1010.55
2023-01-04T16:27:15.823Z,1010.53
2023-01-04T16:29:48.832Z,1010.50
2023-01-04T16:32:21.883Z,1010.46
2023-01-04T16:34:54.863Z,1010.45
2023-01-04T16:37:27.980Z,1010.44
2023-01-04T16:40:09.143Z,1010.46
2023-01-04T16:42:33.947Z,1010.48
2023-01-04T16:45:06.696Z,1010.49
2023-01-04T16:47:40.124Z,1010.49
2023-01-04T16:50:13.035Z,1010.49
2023-01-04T16:52:45.755Z,1010.49
2023-01-04T16:55:23.823Z,1010.44
2023-01-04T16:57:52.118Z,1010.44
2023-01-04T17:00:25.064Z,1010.41
2023-01-04T17:02:58.048Z,1010.41
2023-01-04T17:05:31.115Z,1010.40
2023-01-04T17:08:04.043Z,1010.37
2023-01-04T17:10:36.859Z,1010.35
2023-01-04T17:13:10.038Z,1010.31
2023-01-04T17:15:44.295Z,1010.27
2023-01-04T17:18:15.768Z,1010.24
2023-01-04T17:20:49.120Z,1010.22
2023-01-04T17:23:22.073Z,1010.20
2023-01-04T17:25:55.142Z,1010.18
2023-01-04T17:28:28.105Z,1010.19
2023-01-04T17:31:01.151Z,1010.16
2023-01-04T17:33:34.172Z,1010.16
2023-01-04T17:36:07.144Z,1010.17
2023-01-04T17:38:40.075Z,1010.18
2023-01-04T17:41:13.107Z,1010.19
2023-01-04T17:43:45.946Z,1010.22
2023-01-04T17:46:22.776Z,1010.24
2023-01-04T17:49:17.667Z,1010.23
2023-01-04T17:51:28.241Z,1010.21
2023-01-04T17:54:02.128Z,1010.18
2023-01-04T17:56:35.128Z,1010.16
2023-01-04T17:59:08.203Z,1010.11
2023-01-04T18:01:41.031Z,1010.08
2023-01-04T18:04:14.218Z,1010.05
2023-01-04T18:06:47.197Z,1010.03
2023-01-04T18:09:22.200Z,1010.03
2023-01-04T18:11:53.223Z,1010.04
2023-01-04T18:14:26.211Z,1010.02
2023-01-04T18:16:59.435Z,1010.00
2023-01-04T18:19:32.186Z,1010.03
2023-01-04T18:22:05.123Z,1010.04
2023-01-04T18:24:39.167Z,1010.06
2023-01-04T18:27:26.714Z,1010.07
2023-01-04T18:29:44.242Z,1010.08
2023-01-04T18:32:16.831Z,1010.10
2023-01-04T18:34:50.186Z,1010.11
2023-01-04T18:37:23.140Z,1010.09
2023-01-04T18:39:56.141Z,1010.10
2023-01-04T18:42:29.137Z,1010.12
2023-01-04T18:45:02.140Z,1010.13
2023-01-04T18:47:35.129Z,1010.11
2023-01-04T18:50:08.294Z,1010.11
2023-01-04T18:52:41.176Z,1010.10
2023-01-04T18:55:14.261Z,1010.09
2023-01-04T18:57:46.922Z,1010.09
2023-01-04T19:00:20.205Z,1010.09
2023-01-04T19:02:52.970Z,1010.09
2023-01-04T19:05:26.079Z,1010.08
2023-01-04T19:07:59.296Z,1010.10
2023-01-04T19:10:32.286Z,1010.12
2023-01-04T19:13:05.065Z,1010.15
2023-01-04T19:15:41.307Z,1010.13
2023-01-04T19:18:11.208Z,1010.14
2023-01-04T19:20:44.043Z,1010.12
2023-01-04T19:23:17.016Z,1010.10
2023-01-04T19:25:50.041Z,1010.07
2023-01-04T19:28:23.049Z,1010.03
2023-01-04T19:30:55.982Z,1009.98
2023-01-04T19:33:29.104Z,1009.95
2023-01-04T19:36:02.100Z,1009.94
2023-01-04T19:38:34.929Z,1009.93
2023-01-04T19:41:07.940Z,1009.93
2023-01-04T19:43:41.308Z,1009.92
2023-01-04T19:46:14.110Z,1009.95
2023-01-04T19:48:47.071Z,1009.96
2023-01-04T19:51:19.998Z,1009.98
2023-01-04T19:53:53.334Z,1010.00
2023-01-04T19:56:26.073Z,1010.01
2023-01-04T19:58:59.096Z,1010.01
2023-01-04T20:01:32.261Z,1010.02
2023-01-04T20:04:05.045Z,1010.04
2023-01-04T20:06:38.245Z,1010.07
2023-01-04T20:09:11.357Z,1010.10
2023-01-04T20:11:46.928Z,1010.08
2023-01-04T20:14:20.107Z,1010.10
2023-01-04T20:16:53.061Z,1010.09
2023-01-04T20:19:26.224Z,1010.11
2023-01-04T20:21:59.157Z,1010.09
2023-01-04T20:24:32.346Z,1010.11
2023-01-04T20:27:05.028Z,1010.12
2023-01-04T20:29:38.097Z,1010.16
2023-01-04T20:32:11.325Z,1010.20
2023-01-04T20:34:44.213Z,1010.23
2023-01-04T20:37:17.107Z,1010.22
2023-01-04T20:39:50.358Z,1010.19
2023-01-04T20:42:23.144Z,1010.20
2023-01-04T20:44:56.248Z,1010.22
2023-01-04T20:47:29.069Z,1010.23
2023-01-04T20:50:02.206Z,1010.23
2023-01-04T20:52:35.190Z,1010.19
2023-01-04T20:55:12.576Z,1010.17
2023-01-04T20:57:41.248Z,1010.13
2023-01-04T21:00:14.341Z,1010.11
2023-01-04T21:02:47.355Z,1010.09
2023-01-04T21:05:20.143Z,1010.07
2023-01-04T21:07:53.326Z,1010.07
2023-01-04T21:10:26.457Z,1010.07
2023-01-04T21:12:59.219Z,1010.07
2023-01-04T21:15:32.287Z,1010.05
2023-01-04T21:18:05.304Z,1010.01
2023-01-04T21:20:38.273Z,1009.98
2023-01-04T21:23:11.138Z,1009.95
2023-01-04T21:25:44.379Z,1009.92
2023-01-04T21:28:17.214Z,1009.88
2023-01-04T21:30:50.293Z,1009.87
2023-01-04T21:33:23.185Z,1009.84
2023-01-04T21:35:56.208Z,1009.80
2023-01-04T21:38:29.442Z,1009.77
2023-01-04T21:41:02.394Z,1009.76
2023-01-04T21:43:35.297Z,1009.75
2023-01-04T21:46:08.394Z,1009.74
2023-01-04T21:48:55.241Z,1009.75
2023-01-04T21:51:28.144Z,1009.77
2023-01-04T21:54:01.284Z,1009.80
2023-01-04T21:56:34.352Z,1009.80
2023-01-04T21:59:07.418Z,1009.82
2023-01-04T22:01:40.640Z,1009.82
2023-01-04T22:04:13.205Z,1009.80
2023-01-04T22:06:46.367Z,1009.81
2023-01-04T22:09:19.364Z,1009.81
2023-01-04T22:11:52.567Z,1009.77
2023-01-04T22:14:25.571Z,1009.73
2023-01-04T22:16:58.388Z,1009.67
2023-01-04T22:19:31.217Z,1009.64
2023-01-04T22:22:04.583Z,1009.60
2023-01-04T22:24:38.397Z,1009.55
2023-01-04T22:27:10.480Z,1009.53
2023-01-04T22:29:43.486Z,1009.50
2023-01-04T22:32:16.487Z,1009.47
2023-01-04T22:34:49.576Z,1009.45
2023-01-04T22:37:22.335Z,1009.45
2023-01-04T22:39:55.645Z,1009.43
2023-01-04T22:42:28.234Z,1009.40
2023-01-04T22:45:01.369Z,1009.37
2023-01-04T22:47:34.622Z,1009.36
2023-01-04T22:50:07.600Z,1009.34
2023-01-04T22:52:42.674Z,1009.33
2023-01-04T22:55:13.579Z,1009.31
2023-01-04T22:57:46.648Z,1009.30
2023-01-04T23:00:19.529Z,1009.30
2023-01-04T23:02:52.697Z,1009.30
2023-01-04T23:05:25.612Z,1009.28
2023-01-04T23:07:58.545Z,1009.25
2023-01-04T23:10:31.678Z,1009.26
2023-01-04T23:13:04.570Z,1009.25
2023-01-04T23:15:37.693Z,1009.24
2023-01-04T23:18:10.632Z,1009.24
2023-01-04T23:20:43.510Z,1009.25
2023-01-04T23:23:16.685Z,1009.23
2023-01-04T23:25:49.707Z,1009.22
2023-01-04T23:28:22.687Z,1009.20
2023-01-04T23:30:55.664Z,1009.20
2023-01-04T23:33:33.986Z,1009.19
2023-01-04T23:36:01.661Z,1009.15
2023-01-04T23:38:34.654Z,1009.15
2023-01-04T23:41:07.327Z,1009.13
2023-01-04T23:43:40.684Z,1009.12
2023-01-04T23:46:13.857Z,1009.10
2023-01-04T23:48:46.699Z,1009.07
2023-01-04T23:51:19.605Z,1009.06
2023-01-04T23:53:52.691Z,1009.03
2023-01-04T23:56:25.690Z,1009.00
2023-01-04T23:58:58.611Z,1008.99
